Time;durP1;ratioP1;P1;durP2;ratioP2;P2;SDS_P1;SDS_P2;PMS_P1;PMS_P2;Temp;Humidity;BMP_temperature;BMP_pressure;BME280_temperature;BME280_humidity;BME280_pressure;Samples;Min_cycle;Max_cycle;Signal;HPM_P1;HPM_P2
2022/02/04 00:07:07;;;;;;;8.25;3.25;;;;;;;;;;143731;607;47022;-82
2022/02/04 00:21:22;;;;;;;5.25;2.53;;;;;;;;;;143733;590;46011;-81
2022/02/04 00:23:48;;;;;;;4.93;2.40;;;;;;;;;;143731;708;47012;-82
2022/02/04 00:26:30;;;;;;;7.72;3.75;;;;;;;;;;143733;575;46012;-82
2022/02/04 00:29:14;;;;;;;6.30;2.40;;;;;;;;;;143732;579;46022;-82
2022/02/04 00:31:49;;;;;;;8.20;2.37;;;;;;;;;;143734;673;46010;-82
2022/02/04 00:34:19;;;;;;;3.72;2.35;;;;;;;;;;143733;665;46020;-83
2022/02/04 00:39:44;;;;;;;8.57;2.92;;;;;;;;;;143734;564;46024;-82
2022/02/04 00:42:12;;;;;;;10.45;5.15;;;;;;;;;;143733;588;46010;-82
2022/02/04 00:44:40;;;;;;;16.40;8.80;;;;;;;;;;143734;713;46021;-81
2022/02/04 00:47:13;;;;;;;7.05;3.45;;;;;;;;;;143738;619;45020;-82
2022/02/04 00:52:52;;;;;;;3.58;2.35;;;;;;;;;;143731;600;46916;-82
2022/02/04 00:55:28;;;;;;;5.45;2.60;;;;;;;;;;143734;586;46020;-82
2022/02/04 01:26:11;;;;;;;9.23;5.05;;;;;;;;;;143737;591;45915;-82
2022/02/04 01:28:42;;;;;;;3.75;2.60;;;;;;;;;;143735;615;46020;-83
2022/02/04 01:31:14;;;;;;;6.82;3.00;;;;;;;;;;143737;582;46018;-83
2022/02/04 01:33:57;;;;;;;8.45;2.70;;;;;;;;;;143732;567;47022;-82
2022/02/04 01:36:24;;;;;;;5.32;2.60;;;;;;;;;;143733;567;46010;-82
2022/02/04 01:38:50;;;;;;;5.45;2.90;;;;;;;;;;143734;623;46020;-82
2022/02/04 01:41:17;;;;;;;4.30;2.75;;;;;;;;;;143735;581;46010;-83
2022/02/04 01:43:44;;;;;;;5.75;2.78;;;;;;;;;;143732;608;46014;-81
2022/02/04 01:46:12;;;;;;;6.68;2.30;;;;;;;;;;143733;599;46020;-81
2022/02/04 01:48:42;;;;;;;5.55;3.28;;;;;;;;;;143735;606;47020;-82
2022/02/04 01:51:15;;;;;;;4.95;2.78;;;;;;;;;;143735;583;46010;-82
2022/02/04 01:53:43;;;;;;;6.47;2.37;;;;;;;;;;143732;566;47023;-82
2022/02/04 01:56:12;;;;;;;5.43;2.87;;;;;;;;;;143733;564;46914;-82
2022/02/04 01:58:41;;;;;;;7.05;3.22;;;;;;;;;;143732;637;47021;-81
2022/02/04 02:01:08;;;;;;;5.00;2.67;;;;;;;;;;143737;581;45020;-82
2022/02/04 02:03:36;;;;;;;6.28;3.15;;;;;;;;;;143730;596;47022;-82
2022/02/04 02:06:08;;;;;;;8.30;2.85;;;;;;;;;;143732;567;46011;-83
2022/02/04 02:08:40;;;;;;;5.65;3.03;;;;;;;;;;143730;571;47020;-83
2022/02/04 02:11:09;;;;;;;4.93;3.00;;;;;;;;;;143735;631;46010;-82
2022/02/04 02:13:50;;;;;;;5.18;2.20;;;;;;;;;;143734;623;46051;-82
2022/02/04 02:33:37;;;;;;;4.35;2.15;;;;;;;;;;143735;594;46010;-81
2022/02/04 02:44:45;;;;;;;5.18;2.40;;;;;;;;;;143736;710;46021;-82
2022/02/04 02:59:05;;;;;;;2.95;2.65;;;;;;;;;;143735;617;46012;-82
2022/02/04 03:01:31;;;;;;;3.75;2.83;;;;;;;;;;143734;587;46010;-80
2022/02/04 03:04:03;;;;;;;4.00;3.03;;;;;;;;;;143732;584;46020;-82
2022/02/04 03:06:29;;;;;;;6.37;3.50;;;;;;;;;;143737;628;46010;-82
2022/02/04 03:08:58;;;;;;;6.50;3.35;;;;;;;;;;143732;581;47022;-81
2022/02/04 03:11:24;;;;;;;5.78;2.90;;;;;;;;;;143732;623;46010;-81
2022/02/04 03:13:51;;;;;;;3.55;2.53;;;;;;;;;;143738;601;46020;-80
2022/02/04 03:16:19;;;;;;;4.90;3.42;;;;;;;;;;143738;591;46010;-81
2022/02/04 03:18:49;;;;;;;10.70;3.25;;;;;;;;;;143735;565;46022;-80
2022/02/04 03:21:21;;;;;;;3.05;2.40;;;;;;;;;;143734;569;46011;-82
2022/02/04 03:23:53;;;;;;;3.15;2.80;;;;;;;;;;143735;571;46020;-81
2022/02/04 03:26:45;;;;;;;8.60;3.15;;;;;;;;;;143736;655;46010;-82
2022/02/04 03:29:12;;;;;;;4.90;2.97;;;;;;;;;;143734;570;46023;-81
2022/02/04 03:31:44;;;;;;;5.07;3.40;;;;;;;;;;143737;643;45914;-81
2022/02/04 03:34:11;;;;;;;6.12;3.75;;;;;;;;;;143737;571;46020;-82
2022/02/04 03:36:42;;;;;;;6.97;3.70;;;;;;;;;;143737;614;46043;-82
2022/02/04 03:39:08;;;;;;;6.70;4.00;;;;;;;;;;143737;594;46022;-82
2022/02/04 03:41:35;;;;;;;7.00;4.30;;;;;;;;;;143732;564;48914;-83
2022/02/04 03:44:02;;;;;;;6.62;3.83;;;;;;;;;;143737;583;46020;-82
2022/02/04 03:46:29;;;;;;;3.58;2.95;;;;;;;;;;143737;593;47020;-82
2022/02/04 03:48:56;;;;;;;4.40;3.35;;;;;;;;;;143733;713;47022;-80
2022/02/04 03:51:23;;;;;;;3.83;3.35;;;;;;;;;;143733;593;46010;-81
2022/02/04 03:53:50;;;;;;;4.55;3.78;;;;;;;;;;143736;569;46020;-81
2022/02/04 03:56:20;;;;;;;5.45;3.85;;;;;;;;;;143737;635;46020;-81
2022/02/04 03:58:47;;;;;;;4.28;3.53;;;;;;;;;;143731;569;47020;-82
2022/02/04 04:01:13;;;;;;;4.68;3.62;;;;;;;;;;143734;601;46010;-81
2022/02/04 04:03:40;;;;;;;5.05;4.25;;;;;;;;;;143736;621;47020;-81
2022/02/04 04:06:08;;;;;;;6.35;3.95;;;;;;;;;;143738;597;46010;-81
2022/02/04 04:08:35;;;;;;;6.90;4.22;;;;;;;;;;143734;579;46022;-82
2022/02/04 04:11:02;;;;;;;5.78;4.03;;;;;;;;;;143733;570;46010;-82
2022/02/04 04:13:29;;;;;;;4.35;3.20;;;;;;;;;;143736;581;46021;-82
2022/02/04 04:15:55;;;;;;;3.95;3.55;;;;;;;;;;143738;671;46010;-81
2022/02/04 04:18:22;;;;;;;4.55;3.80;;;;;;;;;;143734;583;46022;-81
2022/02/04 04:20:49;;;;;;;8.25;4.18;;;;;;;;;;143734;636;46010;-82
2022/02/04 04:23:15;;;;;;;5.47;4.05;;;;;;;;;;143736;564;46020;-82
2022/02/04 04:25:45;;;;;;;6.53;4.10;;;;;;;;;;143736;650;46010;-82
2022/02/04 04:28:12;;;;;;;4.55;2.70;;;;;;;;;;143732;602;47023;-81
2022/02/04 04:30:39;;;;;;;4.28;2.53;;;;;;;;;;143734;587;46020;-82
2022/02/04 04:33:06;;;;;;;5.45;3.47;;;;;;;;;;143737;576;46020;-82
2022/02/04 04:35:33;;;;;;;5.55;3.17;;;;;;;;;;143736;685;46010;-81
2022/02/04 04:38:22;;;;;;;;;;;;;;;;;;;;;
2022/02/04 04:41:20;;;;;;;5.10;3.65;;;;;;;;;;143735;567;46010;-80
2022/02/04 05:26:02;;;;;;;3.95;2.87;;;;;;;;;;143735;677;46021;-82
2022/02/04 05:28:38;;;;;;;8.18;3.92;;;;;;;;;;143735;564;46021;-82
2022/02/04 05:31:12;;;;;;;5.68;3.72;;;;;;;;;;143735;702;47010;-81
2022/02/04 05:33:38;;;;;;;6.72;4.70;;;;;;;;;;143733;585;47022;-81
2022/02/04 05:36:07;;;;;;;12.07;6.30;;;;;;;;;;143736;644;46010;-81
2022/02/04 05:38:35;;;;;;;20.08;8.07;;;;;;;;;;143736;679;46020;-81
2022/02/04 05:41:03;;;;;;;10.23;7.72;;;;;;;;;;143737;594;46011;-81
2022/02/04 05:43:33;;;;;;;10.35;7.03;;;;;;;;;;143733;576;47023;-81
2022/02/04 05:46:04;;;;;;;9.75;6.87;;;;;;;;;;143734;600;46020;-81
2022/02/04 05:48:34;;;;;;;7.60;6.22;;;;;;;;;;143737;586;46021;-82
2022/02/04 05:53:57;;;;;;;9.75;5.62;;;;;;;;;;143734;568;46020;-79
2022/02/04 05:56:43;;;;;;;14.10;7.47;;;;;;;;;;143734;600;46010;-80
2022/02/04 05:59:24;;;;;;;15.25;8.50;;;;;;;;;;143735;586;46020;-80
2022/02/04 06:02:13;;;;;;;10.65;7.65;;;;;;;;;;143737;647;46018;-80
2022/02/04 06:04:54;;;;;;;12.23;7.95;;;;;;;;;;143734;603;46023;-82
2022/02/04 06:13:36;;;;;;;16.08;12.35;;;;;;;;;;143736;565;47021;-80
2022/02/04 06:24:17;;;;;;;26.15;14.70;;;;;;;;;;143739;579;46010;-81
2022/02/04 06:26:44;;;;;;;34.88;17.62;;;;;;;;;;143731;571;46021;-80
2022/02/04 06:29:11;;;;;;;25.80;18.27;;;;;;;;;;143735;573;46915;-81
2022/02/04 06:31:37;;;;;;;30.25;13.07;;;;;;;;;;143734;565;46020;-81
2022/02/04 06:34:05;;;;;;;18.23;12.10;;;;;;;;;;143738;622;46010;-82
2022/02/04 06:36:32;;;;;;;21.20;10.50;;;;;;;;;;143732;569;47020;-80
2022/02/04 06:39:21;;;;;;;;;;;;;;;;;;;;;
2022/02/04 06:41:51;;;;;;;19.27;11.20;;;;;;;;;;143734;633;47021;-82
2022/02/04 06:44:18;;;;;;;27.83;16.23;;;;;;;;;;143736;570;46010;-80
2022/02/04 06:47:16;;;;;;;29.17;18.05;;;;;;;;;;143733;577;47022;-80
2022/02/04 06:56:45;;;;;;;43.42;21.17;;;;;;;;;;143736;591;46021;-81
2022/02/04 06:59:47;;;;;;;31.40;16.85;;;;;;;;;;143735;590;46022;-80
2022/02/04 07:02:27;;;;;;;;;;;;;;;;;;;;;
2022/02/04 07:05:18;;;;;;;29.60;17.62;;;;;;;;;;143736;609;46021;-81
2022/02/04 07:17:25;;;;;;;29.00;16.45;;;;;;;;;;143735;604;46020;-80
2022/02/04 07:23:46;;;;;;;41.53;20.62;;;;;;;;;;143735;632;47020;-81
2022/02/04 07:26:46;;;;;;;32.33;17.12;;;;;;;;;;143732;580;47916;-79
2022/02/04 07:29:28;;;;;;;;;;;;;;;;;;;;;
2022/02/04 07:42:02;;;;;;;22.92;12.98;;;;;;;;;;143734;571;47021;-81
2022/02/04 07:44:32;;;;;;;23.02;11.82;;;;;;;;;;143738;592;46020;-80
2022/02/04 07:46:59;;;;;;;13.05;8.02;;;;;;;;;;143732;606;46020;-80
2022/02/04 07:49:27;;;;;;;19.55;10.27;;;;;;;;;;143733;578;46010;-81
2022/02/04 07:51:54;;;;;;;15.23;7.15;;;;;;;;;;143736;574;46020;-80
2022/02/04 07:54:21;;;;;;;14.02;6.60;;;;;;;;;;143735;571;46010;-81
2022/02/04 07:56:48;;;;;;;10.13;6.70;;;;;;;;;;143732;659;46023;-81
2022/02/04 07:59:15;;;;;;;15.20;7.87;;;;;;;;;;143733;662;46010;-81
2022/02/04 08:01:42;;;;;;;12.88;8.52;;;;;;;;;;143735;581;46020;-81
2022/02/04 08:04:22;;;;;;;17.58;8.23;;;;;;;;;;143734;564;46018;-81
2022/02/04 08:06:56;;;;;;;13.48;7.57;;;;;;;;;;143731;573;47022;-81
2022/02/04 08:15:37;;;;;;;7.80;4.60;;;;;;;;;;143734;605;47018;-80
2022/02/04 08:18:26;;;;;;;9.35;3.60;;;;;;;;;;143733;593;46024;-81
2022/02/04 08:29:45;;;;;;;5.35;3.00;;;;;;;;;;143735;566;45904;-80
2022/02/04 08:32:37;;;;;;;6.72;4.55;;;;;;;;;;143732;655;46914;-81
2022/02/04 08:35:30;;;;;;;6.85;4.18;;;;;;;;;;143732;576;46021;-79
2022/02/04 08:54:40;;;;;;;5.95;3.50;;;;;;;;;;143732;587;47021;-80
2022/02/04 09:00:17;;;;;;;4.90;3.50;;;;;;;;;;143732;577;47049;-79
2022/02/04 09:02:53;;;;;;;4.30;3.00;;;;;;;;;;143733;579;46038;-80
2022/02/04 09:05:25;;;;;;;4.60;3.35;;;;;;;;;;143733;593;46020;-80
2022/02/04 09:08:06;;;;;;;4.15;3.08;;;;;;;;;;143733;601;46020;-81
2022/02/04 09:10:36;;;;;;;6.22;3.53;;;;;;;;;;143735;599;46021;-81
2022/02/04 09:18:37;;;;;;;3.40;2.80;;;;;;;;;;143735;573;46021;-81
2022/02/04 09:23:43;;;;;;;3.70;2.83;;;;;;;;;;143733;601;46020;-80
2022/02/04 09:26:10;;;;;;;4.45;2.80;;;;;;;;;;143733;579;46021;-79
2022/02/04 09:28:37;;;;;;;6.05;3.95;;;;;;;;;;143735;587;46020;-80
2022/02/04 09:31:04;;;;;;;5.55;3.87;;;;;;;;;;143734;589;46018;-80
2022/02/04 09:33:31;;;;;;;6.45;3.70;;;;;;;;;;143732;585;46023;-80
2022/02/04 09:35:58;;;;;;;6.85;4.43;;;;;;;;;;143733;614;46010;-81
2022/02/04 09:38:26;;;;;;;4.87;3.83;;;;;;;;;;143734;565;46020;-80
2022/02/04 09:40:53;;;;;;;5.87;3.25;;;;;;;;;;143731;573;47021;-81
2022/02/04 09:43:20;;;;;;;7.28;4.07;;;;;;;;;;143733;613;46020;-80
2022/02/04 09:45:47;;;;;;;7.70;3.35;;;;;;;;;;143733;664;46010;-81
2022/02/04 09:48:19;;;;;;;5.03;2.95;;;;;;;;;;143734;586;46021;-81
2022/02/04 09:50:50;;;;;;;5.28;3.00;;;;;;;;;;143736;585;46018;-80
2022/02/04 10:04:52;;;;;;;3.70;2.65;;;;;;;;;;143733;579;46020;-81
2022/02/04 10:13:33;;;;;;;5.30;3.03;;;;;;;;;;143734;573;46020;-80
2022/02/04 10:16:22;;;;;;;5.07;3.03;;;;;;;;;;143731;594;46022;-82
2022/02/04 10:19:13;;;;;;;4.07;2.37;;;;;;;;;;143730;599;47010;-81
2022/02/04 10:21:40;;;;;;;10.20;2.95;;;;;;;;;;143733;591;46020;-81
2022/02/04 10:24:09;;;;;;;4.05;2.45;;;;;;;;;;143736;587;46021;-80
2022/02/04 10:26:36;;;;;;;4.00;2.37;;;;;;;;;;143734;590;46020;-81
2022/02/04 10:29:05;;;;;;;3.78;2.40;;;;;;;;;;143732;569;46010;-80
2022/02/04 10:31:33;;;;;;;4.25;2.22;;;;;;;;;;143734;569;46020;-81
2022/02/04 10:34:19;;;;;;;10.75;2.47;;;;;;;;;;143733;589;46012;-81
2022/02/04 10:37:01;;;;;;;4.40;2.55;;;;;;;;;;143730;582;47022;-81
2022/02/04 10:42:54;;;;;;;4.32;2.30;;;;;;;;;;143733;569;46020;-82
2022/02/04 10:51:39;;;;;;;3.22;2.08;;;;;;;;;;143730;584;47020;-81
2022/02/04 10:54:47;;;;;;;3.87;2.35;;;;;;;;;;143735;595;46021;-81
2022/02/04 11:05:32;;;;;;;6.95;2.65;;;;;;;;;;143734;597;46020;-81
2022/02/04 11:08:14;;;;;;;3.05;1.83;;;;;;;;;;143732;658;48010;-81
2022/02/04 11:11:30;;;;;;;4.82;2.87;;;;;;;;;;143731;657;47023;-81
2022/02/04 11:36:39;;;;;;;6.53;4.03;;;;;;;;;;143733;571;46010;-81
2022/02/04 11:49:48;;;;;;;22.05;15.25;;;;;;;;;;143737;602;45021;-80
2022/02/04 11:52:06;;;;;;;12.95;7.75;;;;;;;;;;143735;570;46012;-82
2022/02/04 11:54:43;;;;;;;9.02;4.68;;;;;;;;;;143734;583;46018;-81
2022/02/04 11:57:18;;;;;;;24.17;13.13;;;;;;;;;;143734;736;46022;-81
2022/02/04 11:59:56;;;;;;;18.87;9.60;;;;;;;;;;143732;622;46010;-81
2022/02/04 12:02:31;;;;;;;7.07;4.72;;;;;;;;;;143734;620;46021;-81
2022/02/04 12:05:26;;;;;;;8.13;3.30;;;;;;;;;;143735;642;46018;-81
2022/02/04 12:08:19;;;;;;;6.50;2.20;;;;;;;;;;143732;588;47024;-82
2022/02/04 12:10:51;;;;;;;8.70;3.00;;;;;;;;;;143735;579;46010;-82
2022/02/04 12:13:20;;;;;;;6.82;3.30;;;;;;;;;;143735;582;46012;-82
2022/02/04 12:16:07;;;;;;;8.88;2.97;;;;;;;;;;143734;601;46011;-81
2022/02/04 12:19:06;;;;;;;12.02;6.43;;;;;;;;;;143731;582;46023;-81
2022/02/04 12:21:44;;;;;;;8.10;4.15;;;;;;;;;;143732;569;46010;-81
2022/02/04 12:24:31;;;;;;;5.53;3.47;;;;;;;;;;143733;609;46021;-81
2022/02/04 12:27:34;;;;;;;5.20;3.45;;;;;;;;;;143736;569;46020;-80
2022/02/04 12:30:33;;;;;;;4.15;2.92;;;;;;;;;;143730;622;47024;-79
2022/02/04 12:33:06;;;;;;;8.23;3.65;;;;;;;;;;143734;578;45914;-81
2022/02/04 12:35:33;;;;;;;9.40;3.12;;;;;;;;;;143735;603;46020;-81
2022/02/04 12:38:02;;;;;;;12.82;6.70;;;;;;;;;;143734;643;46010;-81
2022/02/04 12:40:32;;;;;;;73.82;51.88;;;;;;;;;;143731;587;47023;-81
2022/02/04 12:42:59;;;;;;;11.57;7.40;;;;;;;;;;143732;595;46046;-81
2022/02/04 12:45:27;;;;;;;5.12;3.65;;;;;;;;;;143734;574;46020;-80
2022/02/04 12:48:03;;;;;;;5.30;2.20;;;;;;;;;;143735;564;46021;-80
2022/02/04 12:50:30;;;;;;;5.18;2.78;;;;;;;;;;143732;649;46022;-80
2022/02/04 12:53:07;;;;;;;5.62;3.20;;;;;;;;;;143732;591;46013;-81
2022/02/04 12:55:47;;;;;;;4.43;2.60;;;;;;;;;;143733;566;46012;-80
2022/02/04 12:58:36;;;;;;;4.47;2.60;;;;;;;;;;143732;573;47018;-80
2022/02/04 13:09:50;;;;;;;7.85;4.00;;;;;;;;;;143736;566;46011;-82
2022/02/04 13:12:18;;;;;;;3.70;2.67;;;;;;;;;;143734;614;46046;-82
2022/02/04 13:14:47;;;;;;;7.87;3.95;;;;;;;;;;143731;572;46020;-82
2022/02/04 13:17:32;;;;;;;5.50;3.72;;;;;;;;;;143733;578;47021;-82
2022/02/04 13:19:59;;;;;;;11.50;7.60;;;;;;;;;;143738;586;45020;-82
2022/02/04 13:22:26;;;;;;;6.30;3.72;;;;;;;;;;143731;609;47022;-81
2022/02/04 13:25:15;;;;;;;7.18;3.15;;;;;;;;;;143734;577;46010;-82
2022/02/04 13:28:13;;;;;;;4.50;3.22;;;;;;;;;;143734;606;46020;-82
2022/02/04 13:31:00;;;;;;;6.53;3.30;;;;;;;;;;143734;574;46010;-85
2022/02/04 13:33:50;;;;;;;4.60;3.20;;;;;;;;;;143732;596;46023;-83
2022/02/04 13:37:05;;;;;;;8.85;4.50;;;;;;;;;;143732;584;46012;-84
2022/02/04 13:40:15;;;;;;;7.80;3.10;;;;;;;;;;143735;589;46012;-84
2022/02/04 13:42:50;;;;;;;6.12;3.62;;;;;;;;;;143735;564;46018;-84
2022/02/04 13:45:45;;;;;;;57.58;40.05;;;;;;;;;;143731;586;46052;-84
2022/02/04 13:48:33;;;;;;;19.92;14.05;;;;;;;;;;143733;650;46010;-84
2022/02/04 13:51:26;;;;;;;5.18;3.62;;;;;;;;;;143735;582;46020;-83
2022/02/04 14:00:41;;;;;;;10.43;6.78;;;;;;;;;;143732;572;47020;-85
2022/02/04 14:03:22;;;;;;;11.77;4.70;;;;;;;;;;143735;651;46020;-84
2022/02/04 14:05:59;;;;;;;5.62;3.20;;;;;;;;;;143735;570;46010;-84
2022/02/04 14:08:35;;;;;;;15.10;10.63;;;;;;;;;;143732;564;47022;-83
2022/02/04 14:11:04;;;;;;;8.85;4.32;;;;;;;;;;143731;579;47010;-82
2022/02/04 14:13:31;;;;;;;7.60;5.03;;;;;;;;;;143734;629;46020;-85
2022/02/04 14:16:19;;;;;;;11.20;5.97;;;;;;;;;;143736;607;46011;-83
2022/02/04 14:18:50;;;;;;;16.45;9.48;;;;;;;;;;143738;620;45029;-83
2022/02/04 14:21:20;;;;;;;10.30;5.78;;;;;;;;;;143737;571;45914;-86
2022/02/04 14:24:07;;;;;;;17.23;10.10;;;;;;;;;;143736;564;46013;-83
2022/02/04 14:26:46;;;;;;;9.30;6.55;;;;;;;;;;143736;713;46018;-82
2022/02/04 14:29:24;;;;;;;9.70;6.05;;;;;;;;;;143733;594;46022;-82
2022/02/04 14:32:03;;;;;;;13.40;7.28;;;;;;;;;;143735;583;46020;-82
2022/02/04 14:37:51;;;;;;;10.68;4.82;;;;;;;;;;143737;594;45022;-83
2022/02/04 14:54:14;;;;;;;13.35;3.67;;;;;;;;;;143735;569;46021;-82
2022/02/04 15:00:07;;;;;;;11.00;3.90;;;;;;;;;;143736;646;47019;-83
2022/02/04 15:02:22;;;;;;;7.47;3.95;;;;;;;;;;143734;628;47023;-83
2022/02/04 15:04:53;;;;;;;11.52;6.07;;;;;;;;;;143734;578;46010;-82
2022/02/04 15:07:30;;;;;;;7.60;4.95;;;;;;;;;;143736;610;46020;-82
2022/02/04 15:10:01;;;;;;;8.15;4.22;;;;;;;;;;143735;592;46020;-81
2022/02/04 15:12:28;;;;;;;8.07;5.00;;;;;;;;;;143733;569;46022;-82
2022/02/04 15:14:56;;;;;;;9.13;5.53;;;;;;;;;;143732;613;46011;-81
2022/02/04 15:17:25;;;;;;;12.70;7.80;;;;;;;;;;143732;594;47020;-81
2022/02/04 15:19:53;;;;;;;13.50;7.75;;;;;;;;;;143736;598;46018;-82
2022/02/04 15:22:26;;;;;;;15.48;6.93;;;;;;;;;;143734;603;46022;-82
2022/02/04 15:24:58;;;;;;;14.35;7.30;;;;;;;;;;143735;623;46020;-82
2022/02/04 15:27:29;;;;;;;19.15;12.00;;;;;;;;;;143734;595;46020;-81
2022/02/04 15:29:58;;;;;;;24.73;16.83;;;;;;;;;;143736;579;46019;-81
2022/02/04 15:32:25;;;;;;;14.20;10.35;;;;;;;;;;143734;602;46051;-80
2022/02/04 15:34:53;;;;;;;10.45;7.28;;;;;;;;;;143733;643;46020;-81
2022/02/04 15:37:20;;;;;;;13.38;8.43;;;;;;;;;;143735;598;46021;-81
2022/02/04 15:39:47;;;;;;;14.80;11.20;;;;;;;;;;143733;572;46012;-82
2022/02/04 15:42:17;;;;;;;24.85;15.35;;;;;;;;;;143734;595;46014;-81
2022/02/04 15:45:11;;;;;;;32.35;25.15;;;;;;;;;;143732;575;46012;-82
2022/02/04 15:47:55;;;;;;;20.00;17.85;;;;;;;;;;143735;656;46012;-79
2022/02/04 15:50:39;;;;;;;33.88;20.02;;;;;;;;;;143739;573;46018;-81
2022/02/04 16:04:49;;;;;;;;;;;;;;;;;;143738;980;46012;-81
2022/02/04 16:07:18;;;;;;;24.42;20.77;;;;;;;;;;143744;564;47013;-80
2022/02/04 16:10:19;;;;;;;29.80;20.20;;;;;;;;;;143736;569;46020;-80
2022/02/04 16:15:59;;;;;;;26.08;18.30;;;;;;;;;;143734;593;46025;-81
2022/02/04 16:18:32;;;;;;;34.03;21.30;;;;;;;;;;143733;648;46914;-81
2022/02/04 16:21:15;;;;;;;38.67;30.10;;;;;;;;;;143734;567;46020;-80
2022/02/04 16:24:19;;;;;;;51.10;34.33;;;;;;;;;;143736;564;46018;-81
2022/02/04 16:26:51;;;;;;;53.95;38.53;;;;;;;;;;143734;622;46014;-81
2022/02/04 16:29:18;;;;;;;67.90;43.65;;;;;;;;;;143733;629;46021;-81
2022/02/04 16:31:45;;;;;;;72.68;48.08;;;;;;;;;;143734;614;47020;-81
2022/02/04 16:34:53;;;;;;;;;;;;;;;;;;;;;
2022/02/04 16:37:04;;;;;;;62.65;48.20;;;;;;;;;;143737;597;46015;-81
2022/02/04 16:39:35;;;;;;;69.78;51.65;;;;;;;;;;143735;587;46012;-80
2022/02/04 16:42:11;;;;;;;72.70;51.17;;;;;;;;;;143737;650;46014;-81
2022/02/04 16:44:39;;;;;;;62.62;41.30;;;;;;;;;;143736;599;46018;-81
2022/02/04 16:47:07;;;;;;;55.35;38.55;;;;;;;;;;143734;613;46020;-80
2022/02/04 16:49:35;;;;;;;51.30;34.78;;;;;;;;;;143735;653;46012;-82
2022/02/04 16:52:10;;;;;;;43.45;32.20;;;;;;;;;;143738;619;45021;-81
2022/02/04 16:54:38;;;;;;;34.60;25.65;;;;;;;;;;143741;617;45020;-80
2022/02/04 16:57:05;;;;;;;31.45;22.30;;;;;;;;;;143736;590;46020;-82
2022/02/04 16:59:32;;;;;;;27.80;21.52;;;;;;;;;;143736;684;46021;-82
2022/02/04 17:02:00;;;;;;;31.12;23.50;;;;;;;;;;143734;566;46020;-81
2022/02/04 17:04:27;;;;;;;25.35;20.12;;;;;;;;;;143739;607;46018;-82
2022/02/04 17:06:59;;;;;;;26.98;19.48;;;;;;;;;;143734;575;46044;-82
2022/02/04 17:09:37;;;;;;;33.70;26.00;;;;;;;;;;143734;591;46020;-81
2022/02/04 17:12:10;;;;;;;36.63;26.85;;;;;;;;;;143735;643;46020;-81
2022/02/04 17:14:41;;;;;;;51.88;36.03;;;;;;;;;;143736;711;46018;-82
2022/02/04 17:17:10;;;;;;;52.35;39.80;;;;;;;;;;143737;580;46038;-81
2022/02/04 17:19:50;;;;;;;53.70;36.28;;;;;;;;;;143734;589;46012;-81
2022/02/04 17:22:17;;;;;;;60.67;41.30;;;;;;;;;;143736;596;46021;-81
2022/02/04 17:24:49;;;;;;;59.42;42.55;;;;;;;;;;143739;599;46020;-81
2022/02/04 17:27:19;;;;;;;55.38;39.40;;;;;;;;;;143736;559;46033;-82
2022/02/04 17:29:47;;;;;;;43.83;32.13;;;;;;;;;;143733;586;46013;-81
2022/02/04 17:32:13;;;;;;;32.08;22.23;;;;;;;;;;143733;600;47020;-81
2022/02/04 17:34:42;;;;;;;33.88;23.17;;;;;;;;;;143736;658;46020;-82
2022/02/04 17:37:15;;;;;;;32.05;22.77;;;;;;;;;;143734;565;46023;-80
2022/02/04 17:39:45;;;;;;;23.10;17.58;;;;;;;;;;143733;655;46012;-82
2022/02/04 17:42:12;;;;;;;32.28;21.70;;;;;;;;;;143736;573;46020;-81
2022/02/04 17:44:38;;;;;;;25.88;19.80;;;;;;;;;;143735;629;46013;-81
2022/02/04 17:47:06;;;;;;;32.85;23.00;;;;;;;;;;143731;569;47020;-81
2022/02/04 17:49:46;;;;;;;64.47;44.95;;;;;;;;;;143735;653;46020;-81
2022/02/04 17:52:22;;;;;;;51.05;37.30;;;;;;;;;;143734;605;46021;-81
2022/02/04 17:57:53;;;;;;;58.70;42.17;;;;;;;;;;143735;570;46021;-82
2022/02/04 18:03:26;;;;;;;62.97;45.30;;;;;;;;;;143735;569;47020;-81
2022/02/04 18:08:46;;;;;;;56.10;45.30;;;;;;;;;;143733;569;46023;-82
2022/02/04 18:11:13;;;;;;;70.05;49.33;;;;;;;;;;143736;569;46020;-83
2022/02/04 18:13:41;;;;;;;62.95;47.92;;;;;;;;;;143736;599;46020;-81
2022/02/04 18:16:10;;;;;;;57.92;44.08;;;;;;;;;;143735;571;46012;-81
2022/02/04 18:18:40;;;;;;;60.33;42.72;;;;;;;;;;143734;582;47022;-82
2022/02/04 18:21:07;;;;;;;64.35;44.17;;;;;;;;;;143732;582;46914;-82
2022/02/04 18:23:34;;;;;;;56.05;40.97;;;;;;;;;;143737;582;46014;-82
2022/02/04 18:26:00;;;;;;;52.45;39.78;;;;;;;;;;143734;592;47012;-83
2022/02/04 18:28:29;;;;;;;55.63;41.90;;;;;;;;;;143738;576;46021;-81
2022/02/04 18:30:56;;;;;;;67.25;45.28;;;;;;;;;;143733;670;46014;-82
2022/02/04 18:33:23;;;;;;;55.40;41.30;;;;;;;;;;143738;597;46014;-82
2022/02/04 18:36:01;;;;;;;53.65;40.12;;;;;;;;;;143737;603;46018;-84
2022/02/04 18:38:43;;;;;;;64.70;43.15;;;;;;;;;;143732;608;47023;-83
2022/02/04 18:41:46;;;;;;;57.22;39.05;;;;;;;;;;143736;598;46020;-81
2022/02/04 18:44:11;;;;;;;53.72;37.50;;;;;;;;;;143734;665;48021;-83
2022/02/04 18:47:00;;;;;;;64.82;37.10;;;;;;;;;;143736;580;46018;-82
2022/02/04 18:49:38;;;;;;;56.97;38.60;;;;;;;;;;143734;571;47022;-82
2022/02/04 18:52:35;;;;;;;57.60;39.58;;;;;;;;;;143733;584;46012;-81
2022/02/04 18:57:58;;;;;;;;;;;;;;;;;;143743;955;46021;-82
2022/02/04 19:00:26;;;;;;;64.57;42.58;;;;;;;;;;143741;721;47023;-80
2022/02/04 19:02:54;;;;;;;56.37;41.00;;;;;;;;;;143735;563;46010;-81
2022/02/04 19:05:30;;;;;;;68.05;41.37;;;;;;;;;;143732;583;46020;-81
2022/02/04 19:08:03;;;;;;;65.53;44.78;;;;;;;;;;143735;597;47020;-81
2022/02/04 19:10:34;;;;;;;76.10;48.95;;;;;;;;;;143736;594;46022;-82
2022/02/04 19:13:12;;;;;;;84.70;51.58;;;;;;;;;;143734;617;46013;-82
2022/02/04 19:16:01;;;;;;;70.55;47.83;;;;;;;;;;143735;577;46020;-81
2022/02/04 19:21:37;;;;;;;74.60;50.55;;;;;;;;;;143736;646;46021;-83
2022/02/04 19:24:05;;;;;;;75.80;52.58;;;;;;;;;;143734;587;46020;-82
2022/02/04 19:26:31;;;;;;;76.20;52.85;;;;;;;;;;143737;695;46020;-81
2022/02/04 19:28:58;;;;;;;80.22;49.92;;;;;;;;;;143735;579;47018;-81
2022/02/04 19:31:43;;;;;;;;;;;;;;;;;;;;;
2022/02/04 19:34:12;;;;;;;72.20;49.97;;;;;;;;;;143732;575;46912;-82
2022/02/04 19:36:40;;;;;;;71.28;53.87;;;;;;;;;;143737;569;46012;-81
2022/02/04 19:39:10;;;;;;;72.90;49.70;;;;;;;;;;143737;567;46018;-83
2022/02/04 19:41:42;;;;;;;75.62;51.42;;;;;;;;;;143737;632;46020;-81
2022/02/04 19:44:09;;;;;;;109.12;71.62;;;;;;;;;;143734;589;46915;-81
2022/02/04 19:46:43;;;;;;;117.50;76.05;;;;;;;;;;143737;596;46020;-82
2022/02/04 19:49:18;;;;;;;131.63;81.78;;;;;;;;;;143737;585;46011;-81
2022/02/04 19:51:54;;;;;;;87.72;59.80;;;;;;;;;;143732;567;46023;-81
2022/02/04 19:54:53;;;;;;;93.70;59.00;;;;;;;;;;143733;653;46010;-81
2022/02/04 20:25:44;;;;;;;91.10;56.58;;;;;;;;;;143730;591;46022;-81
2022/02/04 20:28:27;;;;;;;84.00;56.60;;;;;;;;;;143733;564;46021;-81
2022/02/04 20:30:54;;;;;;;78.35;55.03;;;;;;;;;;143732;595;47020;-82
2022/02/04 20:33:26;;;;;;;76.68;52.00;;;;;;;;;;143733;579;46018;-82
2022/02/04 20:35:55;;;;;;;75.15;54.25;;;;;;;;;;143732;591;47022;-81
2022/02/04 20:38:24;;;;;;;73.95;50.88;;;;;;;;;;143731;564;46010;-80
2022/02/04 20:40:55;;;;;;;83.62;54.88;;;;;;;;;;143733;580;46020;-81
2022/02/04 20:43:30;;;;;;;96.12;64.60;;;;;;;;;;143732;683;46021;-80
2022/02/04 20:46:01;;;;;;;88.82;57.40;;;;;;;;;;143733;602;46012;-82
2022/02/04 20:48:33;;;;;;;91.72;57.83;;;;;;;;;;143733;575;46020;-82
2022/02/04 20:51:08;;;;;;;92.80;62.78;;;;;;;;;;143731;654;47020;-81
2022/02/04 20:53:56;;;;;;;99.78;64.47;;;;;;;;;;143734;579;46010;-82
2022/02/04 20:56:29;;;;;;;102.90;67.50;;;;;;;;;;143733;594;46021;-82
2022/02/04 20:58:59;;;;;;;98.18;67.30;;;;;;;;;;143733;594;46010;-80
2022/02/04 21:01:28;;;;;;;167.18;115.18;;;;;;;;;;143734;571;46020;-82
2022/02/04 21:04:09;;;;;;;113.10;79.15;;;;;;;;;;143734;576;47010;-82
2022/02/04 21:06:59;;;;;;;106.50;72.97;;;;;;;;;;143733;583;46012;-81
2022/02/04 21:10:03;;;;;;;104.40;69.50;;;;;;;;;;143733;606;46012;-81
2022/02/04 21:15:14;;;;;;;79.12;55.67;;;;;;;;;;143735;576;46020;-81
2022/02/04 21:17:43;;;;;;;84.53;57.22;;;;;;;;;;143730;589;46022;-80
2022/02/04 21:20:19;;;;;;;75.97;56.03;;;;;;;;;;143735;576;45915;-82
2022/02/04 21:22:49;;;;;;;84.95;57.80;;;;;;;;;;143733;594;46018;-82
2022/02/04 21:25:19;;;;;;;78.75;55.70;;;;;;;;;;143733;586;47020;-82
2022/02/04 21:27:50;;;;;;;94.03;59.22;;;;;;;;;;143735;580;46012;-82
2022/02/04 21:30:18;;;;;;;90.53;56.00;;;;;;;;;;143729;585;46012;-81
2022/02/04 21:32:51;;;;;;;84.80;57.22;;;;;;;;;;143733;694;46012;-82
2022/02/04 21:38:03;;;;;;;95.68;62.35;;;;;;;;;;143731;671;47022;-82
2022/02/04 21:40:30;;;;;;;87.45;57.08;;;;;;;;;;143730;622;46012;-82
2022/02/04 21:43:00;;;;;;;71.00;50.38;;;;;;;;;;143733;577;46020;-82
2022/02/04 21:45:27;;;;;;;71.65;51.05;;;;;;;;;;143735;569;46010;-82